Data for 07/17/2008

Time Sea-Level Adjusted Pressure Absolute Pressure Temperature Relative Humidity Dew Point   
(mb) (inHg) (mb) (inHg) (C) (F) (%) (C) (F)
00:05 1022 30.18 851 25.13 13 55.5 81 9.9 49.8
00:10 1022 30.18 851 25.13 13 55.4 81 9.9 49.8
00:15 1022 30.18 851 25.13 13 55.3 81 9.7 49.5
00:20 1022 30.18 851 25.13 12.9 55.3 81 9.8 49.7
00:25 1022 30.18 851 25.13 12.8 55 82 9.8 49.6
00:30 1022 30.18 851 25.13 12.6 54.8 82 9.7 49.4
00:35 1022 30.18 851 25.13 12.6 54.6 82 9.5 49.2
00:40 1022 30.18 851 25.13 12.7 54.8 80 9.4 48.8
00:45 1022 30.18 851 25.13 12.9 55.2 78 9.2 48.6
00:50 1022 30.18 851 25.13 12.8 55 79 9.2 48.5
00:55 1022 30.18 851 25.13 12.5 54.5 81 9.3 48.8
01:00 1022 30.18 851 25.13 11.9 53.5 84 9.4 48.9
01:05 1022 30.18 851 25.13 11.9 53.5 81 8.8 47.9
01:10 1022 30.18 851 25.13 12.3 54.1 81 9.2 48.5
01:15 1022 30.18 851 25.13 12.2 54 81 9.1 48.4
01:20 1022 30.18 851 25.13 12.2 53.9 81 9.1 48.3
01:25 1022 30.18 851 25.13 11.9 53.4 82 9 48.1
01:30 1022 30.18 851 25.13 11.8 53.2 83 9 48.1
01:35 1022 30.18 851 25.13 11.6 53 84 9 48.3
01:40 1022 30.18 851 25.13 11.5 52.7 84 8.8 47.9
01:45 1022 30.18 851 25.13 11.4 52.5 84 8.8 47.9
01:50 1022 30.18 851 25.13 11.4 52.6 84 8.8 47.9
01:55 1022 30.18 851 25.13 11.6 52.8 84 8.9 48
02:00 1022 30.18 851 25.13 11.8 53.2 82 8.9 48.1
02:05 1022 30.18 851 25.13 11.8 53.2 83 8.9 48
02:10 1022 30.18 851 25.13 11.7 53.1 82 8.8 47.8
02:15 1022 30.18 851 25.13 11.6 52.9 82 8.7 47.7
02:20 1022 30.18 851 25.13 11.4 52.5 83 8.7 47.6
02:25 1022 30.18 851 25.13 11 51.8 84 8.4 47.1
02:30 1022 30.18 851 25.13 11 51.7 83 8.1 46.6
02:35 1022 30.18 852 25.16 11 51.8 82 8.1 46.6
02:40 1023 30.21 852 25.16 11.1 51.9 84 8.4 47.2
02:45 1023 30.21 852 25.16 11.1 51.9 84 8.6 47.4
02:50 1023 30.21 852 25.16 11 51.7 85 8.5 47.3
02:55 1023 30.21 852 25.16 11 51.9 83 8.3 47
03:00 1023 30.21 852 25.16 11.1 52 83 8.3 46.9
03:05 1023 30.21 852 25.16 11 51.8 85 8.5 47.4
03:10 1023 30.21 852 25.16 10.8 51.4 85 8.4 47.1
03:15 1023 30.21 852 25.16 10.9 51.6 84 8.4 47
03:20 1023 30.21 852 25.16 11.1 51.9 83 8.3 46.9
03:25 1023 30.21 852 25.16 11 51.8 82 8.1 46.6
03:30 1023 30.21 852 25.16 11.1 51.9 81 7.9 46.2
03:35 1023 30.21 852 25.16 11.2 52.1 80 8 46.3
03:40 1023 30.21 852 25.16 11 51.8 82 8.1 46.5
03:45 1023 30.21 852 25.16 10.5 50.9 84 7.9 46.2
03:50 1023 30.21 852 25.16 10.4 50.8 83 7.8 46
03:55 1023 30.21 852 25.16 10.7 51.3 83 7.9 46.3
04:00 1023 30.21 852 25.16 10.7 51.3 83 8 46.3
04:05 1023 30.21 852 25.16 10.5 50.9 84 8 46.3
04:10 1023 30.21 852 25.16 10.5 51 83 7.9 46.2
04:15 1023 30.21 852 25.16 10.7 51.2 85 8.2 46.7
04:20 1023 30.21 852 25.16 10.7 51.2 87 8.6 47.4
04:25 1023 30.21 852 25.16 11.3 52.4 84 8.8 47.8
04:30 1023 30.21 852 25.16 11.6 52.8 84 8.9 48.1
04:35 1023 30.21 852 25.16 10.9 51.6 85 8.5 47.2
04:40 1023 30.21 852 25.16 10.4 50.8 85 8.1 46.6
04:45 1023 30.21 852 25.16 10.8 51.5 84 8.3 46.9
04:50 1023 30.21 852 25.16 11.8 53.2 82 8.7 47.7
04:55 1023 30.21 852 25.16 12.3 54.1 80 8.9 48.1
05:00 1023 30.21 852 25.16 12.4 54.4 80 9 48.2
05:05 1023 30.21 852 25.16 12.4 54.3 78 8.8 47.8
05:10 1023 30.21 852 25.16 12.5 54.6 75 8.3 46.9
05:15 1023 30.21 852 25.16 12.6 54.8 75 8.3 46.9
05:20 1023 30.21 852 25.16 12.7 54.8 74 8.1 46.6
05:25 1023 30.21 852 25.16 12.6 54.6 73 7.8 46.1
05:30 1023 30.21 852 25.16 12.4 54.4 72 7.6 45.7
05:35 1023 30.21 853 25.19 12.5 54.4 72 7.6 45.6
05:40 1023 30.21 853 25.19 12.3 54.1 73 7.5 45.6
05:45 1023 30.21 853 25.19 12.2 54 72 7.3 45.1
05:50 1023 30.21 853 25.19 12.2 53.9 73 7.5 45.4
05:55 1023 30.21 853 25.19 12.1 53.8 72 7.3 45.2
06:00 1023 30.21 853 25.19 12.1 53.8 73 7.3 45.2
06:05 1023 30.21 853 25.19 12.1 53.7 73 7.4 45.4
06:10 1023 30.21 853 25.19 12 53.6 73 7.4 45.3
06:15 1023 30.21 853 25.19 12 53.7 73 7.3 45.1
06:20 1023 30.21 853 25.19 12.1 53.7 72 7.3 45.1
06:25 1023 30.21 853 25.19 12.2 54 72 7.3 45.1
06:30 1023 30.21 853 25.19 12.4 54.4 70 7.2 45
06:35 1023 30.21 853 25.19 12.6 54.7 70 7.4 45.3
06:40 1023 30.21 853 25.19 12.5 54.5 71 7.5 45.4
06:45 1023 30.21 853 25.19 12.6 54.6 70 7.3 45.1
06:50 1023 30.21 853 25.19 12.7 54.8 69 7.3 45.1
06:55 1023 30.21 853 25.19 12.9 55.2 68 7.3 45.1
07:00 1023 30.21 853 25.19 13 55.4 68 7.4 45.3
07:05 1023 30.21 853 25.19 12.9 55.1 70 7.5 45.5
07:10 1023 30.21 853 25.19 12.8 55 70 7.5 45.5
07:15 1023 30.21 853 25.19 12.7 54.9 71 7.6 45.7
07:20 1024 30.24 853 25.19 12.7 54.9 71 7.7 45.8
07:25 1024 30.24 853 25.19 12.8 55 71 7.7 45.9
07:30 1024 30.24 853 25.19 12.8 55.1 71 7.8 46.1
07:35 1024 30.24 853 25.19 12.9 55.3 70 7.6 45.8
07:40 1024 30.24 853 25.19 13.1 55.6 70 7.8 46
07:45 1024 30.24 853 25.19 13.3 55.9 69 7.8 46.1
07:50 1023 30.21 853 25.19 13.4 56 70 8 46.4
07:55 1023 30.21 853 25.19 13.4 56.2 70 8 46.5
08:00 1023 30.21 853 25.19 13.6 56.4 69 8.1 46.6
08:05 1024 30.24 853 25.19 14 57.2 68 8.2 46.8
08:10 1024 30.24 853 25.19 14.4 57.8 66 8.2 46.8
08:15 1024 30.24 853 25.19 14.6 58.2 66 8.3 47
08:20 1024 30.24 853 25.19 14.8 58.7 67 8.8 47.8
08:25 1024 30.24 853 25.19 14.8 58.6 66 8.7 47.6
08:30 1024 30.24 853 25.19 14.9 58.7 66 8.6 47.5
08:35 1024 30.24 853 25.19 15.5 59.9 63 8.6 47.5
08:40 1024 30.24 853 25.19 15.4 59.7 65 8.9 48.1
08:45 1024 30.24 853 25.19 15.5 59.9 63 8.6 47.6
08:50 1024 30.24 853 25.19 15.6 60.1 65 9.1 48.5
08:55 1024 30.24 853 25.19 15.5 59.9 65 8.9 48
09:00 1024 30.24 853 25.19 16.4 61.6 60 8.8 47.9
09:05 1024 30.24 853 25.19 16.8 62.2 57 8.4 47.1
09:10 1023 30.21 853 25.19 16.9 62.3 57 8.5 47.3
09:15 1023 30.21 853 25.19 16.8 62.3 58 8.6 47.4
09:20 1023 30.21 853 25.19 17.1 62.7 57 8.7 47.6
09:25 1023 30.21 852 25.16 17.2 62.9 56 8.3 47
09:30 1023 30.21 852 25.16 17.4 63.3 53 7.9 46.2
09:35 1023 30.21 852 25.16 17.3 63.1 54 8.1 46.6
09:40 1023 30.21 852 25.16 17.3 63.1 53 7.7 45.9
09:45 1023 30.21 852 25.16 17.8 64 56 9 48.1
09:50 1023 30.21 852 25.16 18.2 64.7 56 9.3 48.8
09:55 1023 30.21 852 25.16 18.5 65.2 50 7.8 46.1
10:00 1023 30.21 852 25.16 18.8 65.8 51 8.5 47.2
10:05 1023 30.21 852 25.16 19 66.2 51 8.7 47.7
10:10 1023 30.21 852 25.16 19.2 66.5 49 8.3 46.9
10:15 1023 30.21 852 25.16 20.2 68.3 46 8.5 47.2
10:20 1023 30.21 852 25.16 19.9 67.8 49 9.1 48.4
10:25 1023 30.21 852 25.16 19.2 66.5 54 9.9 49.7
10:30 1023 30.21 852 25.16 19.8 67.6 51 9.6 49.3
10:35 1023 30.21 852 25.16 20.1 68.2 52 10.1 50.2
10:40 1023 30.21 852 25.16 20.7 69.3 47 9.3 48.7
10:45 1023 30.21 852 25.16 21.4 70.6 48 10.1 50.3
10:50 1023 30.21 852 25.16 21.3 70.3 49 10.2 50.3
10:55 1023 30.21 852 25.16 21.1 70.1 50 10.4 50.6
11:00 1023 30.21 852 25.16 19.7 67.4 54 10.1 50.2
11:05 1023 30.21 852 25.16 19.7 67.4 52 9.5 49.2
11:10 1023 30.21 852 25.16 21.4 70.4 47 9.8 49.6
11:15 1023 30.21 852 25.16 21.1 70 51 10.7 51.3
11:20 1023 30.21 852 25.16 20.2 68.3 51 9.8 49.7
11:25 1023 30.21 852 25.16 21.2 70.1 48 9.9 49.9
11:30 1022 30.18 852 25.16 21.2 70.2 49 10.3 50.6
11:35 1022 30.18 852 25.16 20.1 68.1 50 9.5 49.1
11:40 1022 30.18 852 25.16 20.8 69.5 48 9.6 49.3
11:45 1022 30.18 852 25.16 20.3 68.6 53 10.5 50.9
11:50 1022 30.18 851 25.13 20.4 68.8 50 9.7 49.4
11:55 1022 30.18 851 25.13 21.3 70.3 49 10.1 50.2
12:00 1022 30.18 851 25.13 21.3 70.3 49 10.2 50.3
12:05 1022 30.18 851 25.13 21.7 71.1 44 9.2 48.6
12:10 1022 30.18 851 25.13 22.3 72.1 45 9.9 49.8
12:15 1022 30.18 851 25.13 21.5 70.8 48 10.3 50.6
12:20 1022 30.18 851 25.13 22 71.5 47 10.2 50.4
12:25 1022 30.18 851 25.13 22 71.6 46 10.1 50.2
12:30 1022 30.18 851 25.13 21.9 71.3 45 9.6 49.2
12:35 1022 30.18 851 25.13 22 71.5 43 8.9 47.9
12:40 1022 30.18 851 25.13 23 73.3 39 8.6 47.5
12:45 1022 30.18 851 25.13 23 73.3 40 9 48.2
12:50 1022 30.18 851 25.13 22.8 73 41 9.1 48.3
12:55 1022 30.18 851 25.13 23.7 74.7 39 9.3 48.8
13:00 1022 30.18 851 25.13 23.9 75.1 40 9.7 49.5
13:05 1022 30.18 851 25.13 23.6 74.4 40 9.2 48.6
13:10 1021 30.15 851 25.13 23.6 74.4 40 9.5 49.2
13:15 1021 30.15 851 25.13 23.6 74.5 40 9.5 49
13:20 1021 30.15 851 25.13 23.4 74 41 9.5 49.2
13:25 1021 30.15 850 25.1 23.3 73.9 40 9 48.2
13:30 1021 30.15 850 25.1 23.6 74.5 38 8.7 47.7
13:35 1021 30.15 850 25.1 24.2 75.5 38 9.3 48.7
13:40 1021 30.15 850 25.1 24.2 75.6 36 8.4 47.2
13:45 1021 30.15 850 25.1 24.4 75.9 36 8.5 47.4
13:50 1021 30.15 850 25.1 25.3 77.5 34 8.4 47.2
13:55 1021 30.15 850 25.1 25.1 77.1 35 8.8 47.8
14:00 1021 30.15 850 25.1 25 76.9 35 8.7 47.6
14:05 1021 30.15 850 25.1 25.9 78.5 33 8.4 47.1
14:10 1021 30.15 850 25.1 25.5 77.9 33 8.1 46.6
14:15 1021 30.15 850 25.1 24.6 76.3 33 7.6 45.6
14:20 1021 30.15 850 25.1 24.9 76.9 33 7.8 46
14:25 1021 30.15 850 25.1 25.6 78.1 32 7.9 46.2
14:30 1021 30.15 850 25.1 25.5 77.8 32 7.8 46
14:35 1021 30.15 850 25.1 25.5 77.9 30 7.1 44.8
14:40 1021 30.15 850 25.1 25.7 78.2 30 7.1 44.8
14:45 1020 30.12 850 25.1 26.3 79.3 28 6.7 44
14:50 1020 30.12 850 25.1 26 78.8 30 7.6 45.6
14:55 1020 30.12 850 25.1 25.7 78.2 29 6.7 44.1
15:00 1020 30.12 849 25.07 25.8 78.5 29 6.9 44.4
15:05 1020 30.12 849 25.07 25.9 78.5 29 6.7 44.1
15:10 1020 30.12 849 25.07 26 78.7 29 6.8 44.2
15:15 1020 30.12 849 25.07 25.9 78.6 26 5.4 41.6
15:20 1020 30.12 849 25.07 25.8 78.4 26 5.3 41.6
15:25 1020 30.12 849 25.07 26.2 79.1 26 5.4 41.7
15:30 1020 30.12 849 25.07 26.4 79.5 25 5.3 41.6
15:35 1020 30.12 849 25.07 26.1 78.9 26 5.2 41.4
15:40 1020 30.12 849 25.07 26.5 79.7 24 4.6 40.2
15:45 1020 30.12 849 25.07 26.6 79.9 25 5.1 41.2
15:50 1019 30.09 849 25.07 27.2 81 24 4.9 40.9
15:55 1019 30.09 849 25.07 27.6 81.7 23 4.8 40.6
16:00 1019 30.09 848 25.04 27.3 81.1 24 5 41
16:05 1019 30.09 848 25.04 27.2 80.9 24 5.2 41.4
16:10 1019 30.09 848 25.04 27.2 80.9 23 4.6 40.3
16:15 1019 30.09 848 25.04 26.8 80.2 24 5 41.1
16:20 1019 30.09 848 25.04 27.1 80.8 23 4.3 39.7
16:25 1019 30.09 848 25.04 27.4 81.4 24 5.3 41.6
16:30 1019 30.09 848 25.04 27.5 81.4 24 5.5 41.8
16:35 1019 30.09 848 25.04 27.2 81 24 5.3 41.6
16:40 1019 30.09 848 25.04 27.1 80.8 22 4.1 39.4
16:45 1019 30.09 848 25.04 28.1 82.5 21 4.1 39.4
16:50 1019 30.09 848 25.04 27.1 80.8 24 5.3 41.6
16:55 1019 30.09 848 25.04 27.6 81.7 23 4.9 40.8
17:00 1019 30.09 848 25.04 27 80.6 24 5.2 41.4
17:05 1019 30.09 848 25.04 26.1 78.9 26 5.3 41.6
17:10 1019 30.09 848 25.04 26.4 79.5 24 4.5 40
17:15 1019 30.09 848 25.04 26.5 79.6 23 4.2 39.6
17:20 1018 30.06 848 25.04 26.3 79.3 25 4.8 40.6
17:25 1018 30.06 848 25.04 26.4 79.6 24 4.3 39.7
17:30 1018 30.06 847 25.01 27 80.6 22 4 39.3
17:35 1018 30.06 847 25.01 26.9 80.4 24 4.7 40.5
17:40 1018 30.06 847 25.01 26.4 79.5 24 4.4 39.9
17:45 1018 30.06 847 25.01 26 78.8 24 3.9 39.1
17:50 1018 30.06 847 25.01 26.1 79 24 4.4 39.9
17:55 1018 30.06 847 25.01 26.5 79.7 22 3.4 38.2
18:00 1018 30.06 847 25.01 26.5 79.7 22 3.4 38.2
18:05 1018 30.06 847 25.01 26.4 79.5 23 3.6 38.5
18:10 1018 30.06 847 25.01 26.2 79.2 22 3.3 38
18:15 1017 30.03 847 25.01 25.9 78.7 23 3.4 38.1
18:20 1018 30.06 847 25.01 25.5 77.9 24 3.6 38.5
18:25 1018 30.06 847 25.01 24.9 76.7 32 7.3 45.1
18:30 1018 30.06 847 25.01 23.9 75 36 8.2 46.7
18:35 1018 30.06 847 25.01 23.4 74.1 37 8.2 46.7
18:40 1018 30.06 847 25.01 22.1 71.8 39 7.6 45.6
18:45 1019 30.09 848 25.04 20.5 68.9 57 11.9 53.4
18:50 1019 30.09 848 25.04 17.7 63.8 64 10.8 51.4
18:55 1019 30.09 848 25.04 17.3 63.2 66 11 51.9
19:00 1019 30.09 848 25.04 17.1 62.7 66 10.8 51.5
19:05 1018 30.06 847 25.01 16.9 62.5 66 10.6 51.1
19:10 1018 30.06 847 25.01 17.6 63.6 61 9.9 49.9
19:15 1018 30.06 847 25.01 18 64.4 61 10.6 51.1
19:20 1018 30.06 847 25.01 18.2 64.7 60 10.4 50.7
19:25 1018 30.06 847 25.01 18.2 64.8 59 10.2 50.4
19:30 1018 30.06 847 25.01 18.3 65 57 9.8 49.6
19:35 1018 30.06 847 25.01 18.6 65.5 56 9.7 49.4
19:40 1018 30.06 847 25.01 18.8 65.8 54 9.5 49.1
19:45 1018 30.06 847 25.01 18.8 65.8 56 10 50.1
19:50 1018 30.06 848 25.04 18.5 65.3 59 10.4 50.7
19:55 1018 30.06 848 25.04 18.2 64.8 59 10.2 50.4
20:00 1018 30.06 848 25.04 18.2 64.8 56 9.5 49
20:05 1018 30.06 848 25.04 18.4 65.1 56 9.6 49.4
20:10 1018 30.06 848 25.04 18.5 65.3 55 9.4 48.9
20:15 1018 30.06 848 25.04 18.4 65.2 56 9.7 49.4
20:20 1018 30.06 848 25.04 18.3 64.9 57 9.7 49.4
20:25 1018 30.06 848 25.04 18.2 64.7 57 9.6 49.2
20:30 1018 30.06 848 25.04 18.2 64.7 55 9.2 48.6
20:35 1018 30.06 848 25.04 18.2 64.8 55 9.1 48.4
20:40 1018 30.06 847 25.01 18.3 64.9 55 9.2 48.5
20:45 1018 30.06 847 25.01 18.2 64.8 56 9.3 48.8
20:50 1018 30.06 847 25.01 18.1 64.7 55 9.1 48.4
20:55 1018 30.06 847 25.01 18.1 64.6 54 8.9 48
21:00 1018 30.06 847 25.01 18.1 64.5 56 9.2 48.5
21:05 1018 30.06 847 25.01 18 64.4 54 8.7 47.7
21:10 1018 30.06 847 25.01 18 64.3 56 9.1 48.3
21:15 1018 30.06 847 25.01 17.8 64 55 8.8 47.8
21:20 1018 30.06 847 25.01 17.7 63.9 55 8.6 47.6
21:25 1018 30.06 847 25.01 17.7 63.8 56 8.8 47.8
21:30 1018 30.06 847 25.01 17.6 63.6 55 8.6 47.5
21:35 1018 30.06 847 25.01 17.6 63.7 55 8.5 47.3
21:40 1018 30.06 847 25.01 17.5 63.5 56 8.8 47.9
21:45 1018 30.06 847 25.01 17.4 63.3 56 8.5 47.4
21:50 1018 30.06 847 25.01 17.4 63.3 57 8.9 48.1
21:55 1018 30.06 848 25.04 17.4 63.3 57 8.8 47.8
22:00 1018 30.06 848 25.04 17.4 63.3 54 8.1 46.7
22:05 1018 30.06 848 25.04 17.5 63.6 55 8.6 47.5
22:10 1018 30.06 848 25.04 17.3 63.1 56 8.6 47.4
22:15 1018 30.06 848 25.04 17.1 62.8 57 8.7 47.6
22:20 1018 30.06 848 25.04 17 62.5 57 8.4 47.2
22:25 1019 30.09 848 25.04 17.1 62.8 56 8.3 46.9
22:30 1019 30.09 848 25.04 17.3 63.1 55 8.3 46.9
22:35 1019 30.09 848 25.04 17.3 63.2 55 8.4 47.2
22:40 1019 30.09 848 25.04 17.2 63 56 8.5 47.2
22:45 1018 30.06 848 25.04 17.1 62.9 55 8.2 46.8
22:50 1018 30.06 848 25.04 17 62.7 56 8.3 46.9
22:55 1018 30.06 848 25.04 16.9 62.4 57 8.4 47.1
23:00 1018 30.06 848 25.04 16.8 62.2 57 8.4 47.2
23:05 1018 30.06 848 25.04 16.7 62.1 58 8.4 47.1
23:10 1018 30.06 848 25.04 16.6 61.8 59 8.6 47.5
23:15 1018 30.06 848 25.04 16.4 61.4 60 8.6 47.5
23:20 1018 30.06 848 25.04 16.2 61.2 60 8.6 47.5
23:25 1018 30.06 848 25.04 16.1 61.1 61 8.7 47.7
23:30 1018 30.06 848 25.04 16.1 61 60 8.5 47.4
23:35 1018 30.06 848 25.04 16.1 60.9 61 8.7 47.6
23:40 1019 30.09 848 25.04 15.9 60.6 62 8.8 47.8
23:45 1019 30.09 848 25.04 15.7 60.3 64 9 48.1
23:50 1019 30.09 848 25.04 15.6 60 66 9.3 48.8
23:55 1019 30.09 848 25.04 15 59 69 9.4 48.9
24:00 1019 30.09 848 25.04 14.8 58.7 68 9 48.2